createdAt,value
2023-04-07T00:01:43.401Z,8.77
2023-04-07T00:04:10.357Z,12.57
2023-04-07T00:06:37.207Z,11.50
2023-04-07T00:09:03.941Z,10.95
2023-04-07T00:11:30.920Z,9.40
2023-04-07T00:13:57.824Z,10.68
2023-04-07T00:16:24.617Z,9.10
2023-04-07T00:18:51.392Z,10.77
2023-04-07T00:21:18.202Z,8.02
2023-04-07T00:23:45.104Z,9.25
2023-04-07T00:26:11.925Z,11.75
2023-04-07T00:28:38.744Z,12.95
2023-04-07T00:31:05.914Z,9.98
2023-04-07T00:33:33.070Z,12.82
2023-04-07T00:36:00.109Z,10.55
2023-04-07T00:38:27.257Z,11.60
2023-04-07T00:40:59.320Z,9.25
2023-04-07T00:43:26.589Z,10.57
2023-04-07T00:45:54.287Z,10.05
2023-04-07T00:48:21.643Z,10.05
2023-04-07T00:50:48.485Z,10.32
2023-04-07T00:53:16.580Z,9.95
2023-04-07T00:55:43.749Z,13.68
2023-04-07T00:58:11.006Z,12.88
2023-04-07T01:00:55.314Z,11.55
2023-04-07T01:03:32.344Z,11.75
2023-04-07T01:06:02.316Z,11.13
2023-04-07T01:08:44.028Z,10.40
2023-04-07T01:11:17.516Z,13.05
2023-04-07T01:13:49.756Z,9.60
2023-04-07T01:16:32.926Z,10.02
2023-04-07T01:21:48.865Z,10.35
2023-04-07T01:25:02.808Z,11.75
2023-04-07T01:27:43.598Z,8.73
2023-04-07T01:30:13.202Z,11.80
2023-04-07T01:32:47.514Z,12.10
2023-04-07T01:35:15.924Z,10.30
2023-04-07T01:37:43.408Z,13.02
2023-04-07T01:40:11.549Z,9.77
2023-04-07T01:42:39.763Z,10.43
2023-04-07T01:45:07.775Z,11.45
2023-04-07T01:47:37.618Z,15.10
2023-04-07T01:50:09.103Z,12.93
2023-04-07T01:52:36.912Z,13.88
2023-04-07T01:55:11.266Z,12.65
2023-04-07T01:57:38.862Z,14.05
2023-04-07T02:00:06.853Z,14.15
2023-04-07T02:02:41.426Z,12.45
2023-04-07T02:05:12.556Z,13.65
2023-04-07T02:07:46.924Z,12.23
2023-04-07T02:10:16.258Z,16.40
2023-04-07T02:12:46.289Z,14.00
2023-04-07T02:15:14.144Z,11.15
2023-04-07T02:17:44.628Z,11.13
2023-04-07T02:20:12.840Z,11.95
2023-04-07T02:22:39.890Z,9.70
2023-04-07T02:25:24.677Z,11.65
2023-04-07T02:27:52.248Z,11.48
2023-04-07T02:30:19.760Z,11.25
2023-04-07T02:32:46.572Z,12.55
2023-04-07T02:35:13.360Z,12.10
2023-04-07T02:37:40.311Z,12.10
2023-04-07T02:40:07.943Z,12.07
2023-04-07T02:42:34.834Z,11.95
2023-04-07T02:45:01.592Z,12.23
2023-04-07T02:47:28.866Z,10.93
2023-04-07T02:49:57.409Z,13.98
2023-04-07T02:52:24.150Z,12.05
2023-04-07T02:54:51.504Z,13.27
2023-04-07T02:57:18.600Z,11.35
2023-04-07T02:59:45.456Z,14.73
2023-04-07T03:02:12.434Z,16.38
2023-04-07T03:04:39.338Z,12.90
2023-04-07T03:07:06.116Z,13.35
2023-04-07T03:09:32.885Z,13.18
2023-04-07T03:11:59.780Z,12.77
2023-04-07T03:14:26.744Z,10.73
2023-04-07T03:16:53.531Z,11.15
2023-04-07T03:19:20.282Z,11.77
2023-04-07T03:21:47.210Z,13.23
2023-04-07T03:24:13.979Z,12.15
2023-04-07T03:26:41.254Z,12.15
2023-04-07T03:29:08.015Z,12.75
2023-04-07T03:31:34.803Z,14.15
2023-04-07T03:34:01.574Z,11.43
2023-04-07T03:36:28.594Z,13.38
2023-04-07T03:38:55.784Z,11.68
2023-04-07T03:41:22.529Z,11.75
2023-04-07T03:43:49.380Z,11.95
2023-04-07T03:46:16.287Z,14.50
2023-04-07T03:48:43.079Z,12.20
2023-04-07T03:51:09.841Z,13.13
2023-04-07T03:53:36.539Z,16.00
2023-04-07T03:56:03.602Z,12.52
2023-04-07T03:58:30.367Z,13.70
2023-04-07T04:00:57.241Z,12.43
2023-04-07T04:03:24.090Z,14.23
2023-04-07T04:05:51.207Z,13.27
2023-04-07T04:08:18.175Z,13.40
2023-04-07T04:10:45.016Z,10.88
2023-04-07T04:13:12.352Z,15.65
2023-04-07T04:15:39.470Z,14.15
2023-04-07T04:18:06.530Z,13.55
2023-04-07T04:20:33.684Z,15.85
2023-04-07T04:23:00.519Z,11.05
2023-04-07T04:25:27.310Z,12.05
2023-04-07T04:27:54.062Z,12.27
2023-04-07T04:30:21.106Z,14.65
2023-04-07T04:32:47.960Z,12.77
2023-04-07T04:35:14.805Z,13.40
2023-04-07T04:37:41.818Z,12.75
2023-04-07T04:40:09.396Z,13.68
2023-04-07T04:42:36.329Z,12.70
2023-04-07T04:45:03.305Z,15.32
2023-04-07T04:47:31.101Z,14.02
2023-04-07T04:49:58.016Z,14.10
2023-04-07T04:52:24.778Z,13.52
2023-04-07T04:54:51.598Z,13.90
2023-04-07T04:57:18.325Z,14.95
2023-04-07T04:59:45.696Z,14.05
2023-04-07T05:02:12.571Z,13.18
2023-04-07T05:04:39.520Z,12.10
2023-04-07T05:07:06.322Z,11.52
2023-04-07T05:09:33.560Z,13.23
2023-04-07T05:12:01.727Z,14.43
2023-04-07T05:14:28.828Z,15.98
2023-04-07T05:16:56.096Z,18.70
2023-04-07T05:19:22.901Z,18.77
2023-04-07T05:21:49.660Z,24.50
2023-04-07T05:24:16.501Z,18.55
2023-04-07T05:26:43.501Z,20.73
2023-04-07T05:29:10.411Z,17.40
2023-04-07T05:31:37.479Z,12.55
2023-04-07T05:34:04.349Z,21.08
2023-04-07T05:36:31.796Z,16.77
2023-04-07T05:38:59.252Z,15.38
2023-04-07T05:41:26.344Z,16.90
2023-04-07T05:43:53.634Z,18.75
2023-04-07T05:46:20.653Z,14.07
2023-04-07T05:48:47.486Z,14.55
2023-04-07T05:51:15.412Z,15.57
2023-04-07T05:53:42.400Z,14.15
2023-04-07T05:56:09.173Z,14.70
2023-04-07T05:58:35.929Z,15.27
2023-04-07T06:01:02.650Z,15.70
2023-04-07T06:03:30.035Z,15.90
2023-04-07T06:05:58.471Z,16.63
2023-04-07T06:08:25.373Z,14.02
2023-04-07T06:10:52.362Z,16.42
2023-04-07T06:13:19.119Z,15.25
2023-04-07T06:15:46.338Z,17.10
2023-04-07T06:18:13.098Z,15.77
2023-04-07T06:20:40.225Z,12.77
2023-04-07T06:23:07.138Z,12.15
2023-04-07T06:25:34.131Z,13.35
2023-04-07T06:28:01.237Z,14.07
2023-04-07T06:30:28.096Z,13.50
2023-04-07T06:32:54.989Z,15.40
2023-04-07T06:35:21.900Z,11.73
2023-04-07T06:37:49.175Z,13.95
2023-04-07T06:40:16.094Z,16.23
2023-04-07T06:42:43.335Z,15.73
2023-04-07T06:45:10.433Z,14.98
2023-04-07T06:47:38.272Z,12.63
2023-04-07T06:50:05.773Z,15.02
2023-04-07T06:52:32.523Z,14.75
2023-04-07T06:54:59.657Z,15.07
2023-04-07T06:57:27.555Z,16.67
2023-04-07T06:59:54.306Z,13.45
2023-04-07T07:02:21.232Z,13.05
2023-04-07T07:04:48.102Z,15.88
2023-04-07T07:07:15.377Z,12.27
2023-04-07T07:09:42.224Z,13.90
2023-04-07T07:12:10.196Z,13.27
2023-04-07T07:14:37.126Z,12.50
2023-04-07T07:17:04.273Z,12.25
2023-04-07T07:19:31.185Z,12.30
2023-04-07T07:21:58.101Z,14.43
2023-04-07T07:24:28.888Z,14.50
2023-04-07T07:26:57.130Z,12.02
2023-04-07T07:29:23.896Z,13.15
2023-04-07T07:31:51.109Z,12.35
2023-04-07T07:34:18.002Z,12.88
2023-04-07T07:36:45.310Z,12.60
2023-04-07T07:39:12.228Z,13.20
2023-04-07T07:41:38.946Z,14.35
2023-04-07T07:44:06.068Z,12.10
2023-04-07T07:46:32.927Z,13.20
2023-04-07T07:49:04.756Z,13.13
2023-04-07T07:51:31.679Z,13.55
2023-04-07T07:53:58.489Z,12.95
2023-04-07T07:56:25.456Z,13.27
2023-04-07T07:58:52.293Z,12.73
2023-04-07T08:01:19.138Z,14.57
2023-04-07T08:03:46.262Z,11.98
2023-04-07T08:06:13.149Z,14.15
2023-04-07T08:08:40.555Z,13.20
2023-04-07T08:11:07.971Z,11.77
2023-04-07T08:13:34.869Z,14.57
2023-04-07T08:16:01.961Z,10.77
2023-04-07T08:18:28.934Z,12.93
2023-04-07T08:20:57.480Z,12.00
2023-04-07T08:23:24.330Z,10.70
2023-04-07T08:25:51.137Z,10.93
2023-04-07T08:28:17.948Z,11.15
2023-04-07T08:30:44.681Z,12.63
2023-04-07T08:33:11.470Z,12.00
2023-04-07T08:35:38.206Z,11.63
2023-04-07T08:38:05.740Z,12.02
2023-04-07T08:40:33.623Z,14.07
2023-04-07T08:43:01.359Z,13.48
2023-04-07T08:45:29.442Z,15.05
2023-04-07T08:47:57.245Z,13.68
2023-04-07T08:50:27.275Z,13.68
2023-04-07T08:52:56.585Z,14.70
2023-04-07T08:55:24.044Z,13.40
2023-04-07T08:57:52.689Z,16.05
2023-04-07T09:00:20.075Z,14.73
2023-04-07T09:02:49.360Z,13.73
2023-04-07T09:05:16.408Z,12.98
2023-04-07T09:07:43.519Z,16.10
2023-04-07T09:10:11.040Z,15.27
2023-04-07T09:12:38.270Z,13.93
2023-04-07T09:15:08.662Z,14.20
2023-04-07T09:17:35.799Z,14.05
2023-04-07T09:20:04.481Z,14.63
2023-04-07T09:22:42.908Z,13.18
2023-04-07T09:25:13.582Z,13.75
2023-04-07T09:27:40.940Z,12.93
2023-04-07T09:30:12.813Z,14.45
2023-04-07T09:32:41.217Z,15.00
2023-04-07T09:35:08.388Z,14.98
2023-04-07T09:37:35.663Z,14.38
2023-04-07T09:40:02.607Z,13.90
2023-04-07T09:42:32.467Z,13.73
2023-04-07T09:45:03.096Z,16.42
2023-04-07T09:47:32.725Z,14.43
2023-04-07T09:49:59.818Z,13.77
2023-04-07T09:52:50.758Z,15.93
2023-04-07T09:55:21.626Z,14.13
2023-04-07T09:57:52.353Z,14.27
2023-04-07T10:00:19.508Z,16.10
2023-04-07T10:02:46.845Z,13.85
2023-04-07T10:05:13.744Z,17.00
2023-04-07T10:07:42.575Z,14.10
2023-04-07T10:10:10.360Z,15.20
2023-04-07T10:12:41.641Z,15.00
2023-04-07T10:15:09.985Z,13.23
2023-04-07T10:17:40.162Z,14.63
2023-04-07T10:20:09.931Z,17.33
2023-04-07T10:22:41.256Z,14.73
2023-04-07T10:25:11.689Z,14.73
2023-04-07T10:27:54.792Z,14.57
2023-04-07T10:30:26.230Z,17.58
2023-04-07T10:32:54.322Z,15.45
2023-04-07T10:35:22.339Z,15.75
2023-04-07T10:38:07.948Z,13.32
2023-04-07T10:40:35.606Z,14.07
2023-04-07T10:43:02.805Z,13.27
2023-04-07T10:45:59.675Z,13.18
2023-04-07T10:48:28.610Z,12.18
2023-04-07T10:51:08.363Z,12.65
2023-04-07T10:53:35.404Z,11.80
2023-04-07T10:56:02.758Z,13.18
2023-04-07T10:58:30.726Z,13.18
2023-04-07T11:01:00.896Z,16.23
2023-04-07T11:03:34.084Z,14.32
2023-04-07T11:08:48.379Z,12.20
2023-04-07T11:11:34.412Z,16.83
2023-04-07T11:14:01.553Z,13.85
2023-04-07T11:16:37.201Z,12.35
2023-04-07T11:19:03.979Z,11.40
2023-04-07T11:21:31.603Z,14.43
2023-04-07T11:23:58.668Z,14.13
2023-04-07T11:26:25.529Z,14.13
2023-04-07T11:28:54.446Z,15.07
2023-04-07T11:31:26.261Z,12.25
2023-04-07T11:33:59.152Z,13.50
2023-04-07T11:36:29.833Z,12.10
2023-04-07T11:38:57.709Z,15.27
2023-04-07T11:41:28.775Z,12.23
2023-04-07T11:44:26.568Z,12.45
2023-04-07T11:46:58.800Z,13.30
2023-04-07T11:49:30.043Z,11.70
2023-04-07T11:52:07.425Z,12.93
2023-04-07T11:54:47.699Z,13.25
2023-04-07T11:57:14.870Z,12.63
2023-04-07T11:59:42.317Z,12.85
2023-04-07T12:02:09.770Z,14.10
2023-04-07T12:04:40.161Z,15.70
2023-04-07T12:07:11.474Z,12.77
2023-04-07T12:09:38.882Z,12.95
2023-04-07T12:12:07.634Z,10.88
2023-04-07T12:14:35.516Z,11.52
2023-04-07T12:17:03.596Z,11.63
2023-04-07T12:19:35.834Z,12.18
2023-04-07T12:22:03.913Z,13.43
2023-04-07T12:24:32.275Z,10.95
2023-04-07T12:26:59.536Z,12.13
2023-04-07T12:29:26.408Z,11.80
2023-04-07T12:31:53.306Z,10.68
2023-04-07T12:34:20.622Z,11.52
2023-04-07T12:36:48.208Z,12.38
2023-04-07T12:39:16.595Z,10.32
2023-04-07T12:41:45.705Z,11.43
2023-04-07T12:44:12.552Z,11.63
2023-04-07T12:46:39.303Z,11.48
2023-04-07T12:49:06.523Z,11.55
2023-04-07T12:51:33.573Z,11.45
2023-04-07T12:54:03.533Z,11.60
2023-04-07T12:56:30.643Z,10.63
2023-04-07T12:58:57.890Z,10.82
2023-04-07T13:01:24.883Z,12.13
2023-04-07T13:03:52.115Z,9.93
2023-04-07T13:06:19.806Z,11.68
2023-04-07T13:08:46.539Z,11.05
2023-04-07T13:11:13.326Z,9.88
2023-04-07T13:13:40.349Z,9.52
2023-04-07T13:16:07.867Z,10.05
2023-04-07T13:18:34.600Z,9.43
2023-04-07T13:23:42.222Z,10.13
2023-04-07T13:26:10.423Z,10.38
2023-04-07T13:28:37.392Z,9.30
2023-04-07T13:31:04.540Z,11.05
2023-04-07T13:33:31.424Z,8.88
2023-04-07T13:35:58.247Z,9.63
2023-04-07T13:38:25.386Z,9.32
2023-04-07T13:40:52.092Z,9.63
2023-04-07T13:43:20.108Z,10.75
2023-04-07T13:45:47.035Z,10.38
2023-04-07T13:48:13.849Z,10.27
2023-04-07T13:50:40.913Z,12.40
2023-04-07T13:53:08.003Z,10.88
2023-04-07T13:55:34.766Z,10.65
2023-04-07T13:58:02.600Z,10.43
2023-04-07T14:00:29.978Z,10.32
2023-04-07T14:02:57.027Z,10.60
2023-04-07T14:05:24.449Z,9.38
2023-04-07T14:07:51.526Z,9.20
2023-04-07T14:10:18.676Z,13.40
2023-04-07T14:12:45.409Z,9.30
2023-04-07T14:15:12.272Z,9.00
2023-04-07T14:17:39.020Z,8.35
2023-04-07T14:20:06.520Z,9.95
2023-04-07T14:22:33.362Z,10.40
2023-04-07T14:25:00.529Z,9.07
2023-04-07T14:27:31.104Z,10.07
2023-04-07T14:29:59.584Z,12.85
2023-04-07T14:32:29.488Z,12.32
2023-04-07T14:34:59.487Z,13.00
2023-04-07T14:37:28.544Z,11.98
2023-04-07T14:40:02.096Z,11.95
2023-04-07T14:42:30.360Z,10.95
2023-04-07T14:45:03.216Z,11.95
2023-04-07T14:47:31.466Z,12.90
2023-04-07T14:49:58.768Z,11.55
2023-04-07T14:52:25.953Z,11.68
2023-04-07T14:54:52.851Z,10.02
2023-04-07T14:57:19.694Z,11.82
2023-04-07T14:59:47.634Z,10.35
2023-04-07T15:02:14.672Z,10.23
2023-04-07T15:04:41.594Z,11.15
2023-04-07T15:07:08.582Z,13.57
2023-04-07T15:09:35.677Z,8.60
2023-04-07T15:12:02.468Z,9.52
2023-04-07T15:14:29.817Z,9.32
2023-04-07T15:16:56.635Z,8.90
2023-04-07T15:19:23.526Z,8.63
2023-04-07T15:21:50.338Z,9.18
2023-04-07T15:24:17.124Z,10.02
2023-04-07T15:26:44.295Z,12.45
2023-04-07T15:29:11.140Z,9.13
2023-04-07T15:31:37.993Z,8.27
2023-04-07T15:34:05.328Z,8.18
2023-04-07T15:36:32.091Z,8.05
2023-04-07T15:39:04.236Z,10.57
2023-04-07T15:41:31.164Z,9.07
2023-04-07T15:44:00.009Z,9.23
2023-04-07T15:46:27.213Z,10.20
2023-04-07T15:48:53.982Z,9.75
2023-04-07T15:51:20.819Z,7.75
2023-04-07T15:53:48.405Z,14.02
2023-04-07T15:56:15.472Z,8.68
2023-04-07T15:58:42.206Z,9.15
2023-04-07T16:01:09.192Z,9.63
2023-04-07T16:03:36.490Z,9.43
2023-04-07T16:06:03.487Z,8.27
2023-04-07T16:08:30.441Z,9.15
2023-04-07T16:10:57.192Z,7.82
2023-04-07T16:13:23.948Z,7.53
2023-04-07T16:15:54.909Z,7.93
2023-04-07T16:18:21.816Z,8.52
2023-04-07T16:20:48.575Z,8.10
2023-04-07T16:23:15.333Z,7.93
2023-04-07T16:25:42.115Z,8.18
2023-04-07T16:28:08.866Z,8.90
2023-04-07T16:30:36.432Z,9.88
2023-04-07T16:33:05.252Z,6.53
2023-04-07T16:35:32.639Z,7.45
2023-04-07T16:38:04.281Z,9.00
2023-04-07T16:40:31.433Z,8.27
2023-04-07T16:42:58.256Z,9.48
2023-04-07T16:45:24.968Z,8.60
2023-04-07T16:47:52.094Z,7.65
2023-04-07T16:50:19.047Z,9.05
2023-04-07T16:52:47.684Z,9.45
2023-04-07T16:55:17.497Z,8.95
2023-04-07T16:57:44.317Z,8.02
2023-04-07T17:00:14.362Z,6.15
2023-04-07T17:02:41.395Z,7.60
2023-04-07T17:05:08.895Z,8.45
2023-04-07T17:07:36.229Z,7.22
2023-04-07T17:10:03.596Z,8.93
2023-04-07T17:12:30.571Z,7.78
2023-04-07T17:14:57.321Z,10.45
2023-04-07T17:17:24.155Z,8.32
2023-04-07T17:19:51.577Z,8.93
2023-04-07T17:22:18.831Z,7.65
2023-04-07T17:24:45.565Z,9.57
2023-04-07T17:27:12.324Z,7.88
2023-04-07T17:29:39.299Z,9.68
2023-04-07T17:32:07.741Z,7.80
2023-04-07T17:34:35.332Z,6.65
2023-04-07T17:37:02.557Z,7.78
2023-04-07T17:39:29.629Z,8.02
2023-04-07T17:41:56.398Z,8.95
2023-04-07T17:44:23.138Z,8.60
2023-04-07T17:46:49.991Z,8.02
2023-04-07T17:49:17.375Z,10.40
2023-04-07T17:51:44.235Z,9.80
2023-04-07T17:54:10.940Z,8.05
2023-04-07T17:56:38.249Z,8.10
2023-04-07T17:59:05.094Z,8.40
2023-04-07T18:01:32.228Z,7.68
2023-04-07T18:03:59.986Z,6.18
2023-04-07T18:06:28.479Z,6.68
2023-04-07T18:08:55.603Z,7.20
2023-04-07T18:11:22.854Z,6.93
2023-04-07T18:13:49.866Z,7.57
2023-04-07T18:16:21.410Z,6.13
2023-04-07T18:18:49.548Z,6.32
2023-04-07T18:21:16.499Z,6.15
2023-04-07T18:23:43.293Z,8.65
2023-04-07T18:26:10.331Z,7.28
2023-04-07T18:28:37.192Z,7.53
2023-04-07T18:31:06.957Z,8.05
2023-04-07T18:33:35.002Z,7.35
2023-04-07T18:36:07.645Z,7.28
2023-04-07T18:38:36.375Z,10.52
2023-04-07T18:41:03.698Z,8.68
2023-04-07T18:43:31.320Z,6.38
2023-04-07T18:45:58.543Z,6.72
2023-04-07T18:48:26.542Z,7.78
2023-04-07T18:50:57.273Z,8.07
2023-04-07T18:53:25.580Z,8.73
2023-04-07T18:55:52.585Z,8.82
2023-04-07T18:58:21.871Z,7.00
2023-04-07T19:00:50.153Z,8.35
2023-04-07T19:03:17.460Z,6.93
2023-04-07T19:05:47.655Z,7.75
2023-04-07T19:08:16.286Z,6.88
2023-04-07T19:10:43.836Z,8.02
2023-04-07T19:13:10.962Z,8.25
2023-04-07T19:15:39.212Z,9.30
2023-04-07T19:18:07.823Z,8.10
2023-04-07T19:20:34.590Z,8.25
2023-04-07T19:23:01.874Z,7.85
2023-04-07T19:25:30.680Z,7.70
2023-04-07T19:27:59.013Z,7.45
2023-04-07T19:30:25.958Z,7.57
2023-04-07T19:32:53.040Z,8.48
2023-04-07T19:35:21.005Z,5.97
2023-04-07T19:37:51.995Z,6.13
2023-04-07T19:40:18.988Z,6.70
2023-04-07T19:42:45.859Z,8.23
2023-04-07T19:45:12.756Z,6.82
2023-04-07T19:47:39.745Z,8.43
2023-04-07T19:50:07.921Z,8.30
2023-04-07T19:52:34.726Z,7.85
2023-04-07T19:55:03.718Z,8.45
2023-04-07T19:57:31.543Z,7.63
2023-04-07T19:59:58.497Z,6.63
2023-04-07T20:02:26.247Z,7.13
2023-04-07T20:04:53.612Z,7.25
2023-04-07T20:07:20.592Z,7.57
2023-04-07T20:09:47.492Z,7.28
2023-04-07T20:12:14.863Z,7.10
2023-04-07T20:14:41.771Z,7.28
2023-04-07T20:17:08.682Z,6.97
2023-04-07T20:19:35.890Z,7.50
2023-04-07T20:22:02.734Z,7.40
2023-04-07T20:24:30.789Z,8.40
2023-04-07T20:26:57.779Z,7.28
2023-04-07T20:29:24.584Z,7.68
2023-04-07T20:31:51.344Z,7.18
2023-04-07T20:34:18.098Z,7.30
2023-04-07T20:36:44.955Z,6.30
2023-04-07T20:39:11.814Z,8.73
2023-04-07T20:41:42.741Z,7.72
2023-04-07T20:44:09.504Z,7.78
2023-04-07T20:46:36.535Z,7.88
2023-04-07T20:49:05.223Z,8.50
2023-04-07T20:51:32.241Z,7.68
2023-04-07T20:53:58.955Z,8.98
2023-04-07T20:56:25.692Z,9.05
2023-04-07T20:58:52.553Z,8.52
2023-04-07T21:01:19.298Z,7.20
2023-04-07T21:03:46.268Z,8.63
2023-04-07T21:06:13.181Z,10.32
2023-04-07T21:08:39.958Z,11.05
2023-04-07T21:11:06.691Z,13.18
2023-04-07T21:13:33.556Z,10.77
2023-04-07T21:16:01.311Z,9.90
2023-04-07T21:18:28.784Z,10.35
2023-04-07T21:20:59.475Z,9.27
2023-04-07T21:23:26.317Z,11.55
2023-04-07T21:25:53.112Z,17.95
2023-04-07T21:28:19.844Z,31.83
2023-04-07T21:30:46.684Z,31.02
2023-04-07T21:33:14.143Z,16.20
2023-04-07T21:35:42.217Z,17.00
2023-04-07T21:38:09.057Z,10.48
2023-04-07T21:40:36.098Z,11.85
2023-04-07T21:43:03.465Z,7.95
2023-04-07T21:45:31.563Z,9.95
2023-04-07T21:47:58.361Z,9.13
2023-04-07T21:50:25.479Z,10.00
2023-04-07T21:52:52.892Z,8.95
2023-04-07T21:55:20.716Z,10.88
2023-04-07T21:57:48.336Z,9.85
2023-04-07T22:00:16.421Z,13.15
2023-04-07T22:02:43.919Z,10.10
2023-04-07T22:05:11.044Z,9.63
2023-04-07T22:07:37.828Z,8.52
2023-04-07T22:10:05.080Z,12.23
2023-04-07T22:12:31.897Z,9.00
2023-04-07T22:14:58.651Z,8.25
2023-04-07T22:17:25.680Z,9.00
2023-04-07T22:19:52.675Z,11.25
2023-04-07T22:22:19.487Z,11.10
2023-04-07T22:24:46.257Z,12.35
2023-04-07T22:27:13.020Z,11.65
2023-04-07T22:29:39.793Z,13.00
2023-04-07T22:32:06.757Z,13.50
2023-04-07T22:34:33.627Z,11.98
2023-04-07T22:37:00.542Z,10.38
2023-04-07T22:39:27.301Z,12.75
2023-04-07T22:41:54.463Z,11.80
2023-04-07T22:44:21.389Z,11.73
2023-04-07T22:46:48.232Z,14.38
2023-04-07T22:49:14.990Z,12.75
2023-04-07T22:51:41.797Z,11.57
2023-04-07T22:54:09.097Z,11.45
2023-04-07T22:56:36.075Z,12.13
2023-04-07T22:59:05.808Z,11.55
2023-04-07T23:01:33.257Z,10.77
2023-04-07T23:04:00.229Z,11.18
2023-04-07T23:06:28.574Z,9.73
2023-04-07T23:08:56.459Z,12.15
2023-04-07T23:11:23.632Z,11.63
2023-04-07T23:13:51.550Z,9.98
2023-04-07T23:16:18.472Z,10.25
2023-04-07T23:18:45.784Z,10.52
2023-04-07T23:21:13.118Z,11.50
2023-04-07T23:23:40.095Z,10.75
2023-04-07T23:26:07.258Z,9.85
2023-04-07T23:28:33.989Z,11.85
2023-04-07T23:31:02.037Z,9.65
2023-04-07T23:33:31.603Z,11.25
2023-04-07T23:35:58.850Z,12.13
2023-04-07T23:38:26.128Z,10.63
2023-04-07T23:40:53.480Z,12.27
2023-04-07T23:43:20.277Z,13.55
2023-04-07T23:45:47.374Z,11.63
2023-04-07T23:48:16.070Z,12.10
2023-04-07T23:50:42.853Z,13.77
2023-04-07T23:53:10.302Z,16.77
2023-04-07T23:55:37.057Z,15.32
2023-04-07T23:58:03.780Z,12.48
